sensor_id;sensor_type;location;lat;lon;timestamp;pressure;altitude;pressure_sealevel;temperature;humidity
74578;BME280;63173;49.086;33.418;2023-01-01T00:01:26;65943.25;;;-139.78;100.00
74578;BME280;63173;49.086;33.418;2023-01-01T00:03:54;65943.25;;;-139.78;100.00
74578;BME280;63173;49.086;33.418;2023-01-01T00:06:20;65943.25;;;-139.78;100.00
74578;BME280;63173;49.086;33.418;2023-01-01T00:08:46;65943.25;;;-139.78;100.00
74578;BME280;63173;49.086;33.418;2023-01-01T00:11:12;65943.25;;;-139.78;100.00
74578;BME280;63173;49.086;33.418;2023-01-01T00:13:40;65943.25;;;-139.78;100.00
74578;BME280;63173;49.086;33.418;2023-01-01T00:16:06;65943.25;;;-139.78;100.00
74578;BME280;63173;49.086;33.418;2023-01-01T00:18:33;65943.25;;;-139.78;100.00
74578;BME280;63173;49.086;33.418;2023-01-01T00:21:06;65943.25;;;-139.78;100.00
74578;BME280;63173;49.086;33.418;2023-01-01T00:23:33;65943.25;;;-139.78;100.00
74578;BME280;63173;49.086;33.418;2023-01-01T00:25:58;65943.25;;;-139.78;100.00
74578;BME280;63173;49.086;33.418;2023-01-01T00:28:23;65943.25;;;-139.78;100.00
74578;BME280;63173;49.086;33.418;2023-01-01T00:30:49;65943.25;;;-139.78;100.00
74578;BME280;63173;49.086;33.418;2023-01-01T00:33:14;65943.25;;;-139.78;100.00
74578;BME280;63173;49.086;33.418;2023-01-01T00:35:40;65943.25;;;-139.78;100.00
74578;BME280;63173;49.086;33.418;2023-01-01T00:38:06;65943.25;;;-139.78;100.00
74578;BME280;63173;49.086;33.418;2023-01-01T00:40:31;65943.25;;;-139.78;100.00
74578;BME280;63173;49.086;33.418;2023-01-01T00:42:57;65943.25;;;-139.78;100.00
74578;BME280;63173;49.086;33.418;2023-01-01T00:45:22;65943.25;;;-139.78;100.00
74578;BME280;63173;49.086;33.418;2023-01-01T00:47:49;65943.25;;;-139.78;100.00
74578;BME280;63173;49.086;33.418;2023-01-01T00:50:15;65943.25;;;-139.78;100.00
74578;BME280;63173;49.086;33.418;2023-01-01T00:52:41;65943.25;;;-139.78;100.00
74578;BME280;63173;49.086;33.418;2023-01-01T00:55:06;65943.25;;;-139.78;100.00
74578;BME280;63173;49.086;33.418;2023-01-01T00:57:32;65943.25;;;-139.78;100.00
74578;BME280;63173;49.086;33.418;2023-01-01T00:59:57;65943.25;;;-139.78;100.00
74578;BME280;63173;49.086;33.418;2023-01-01T01:02:23;65943.25;;;-139.78;100.00
74578;BME280;63173;49.086;33.418;2023-01-01T01:04:48;65943.25;;;-139.78;100.00
74578;BME280;63173;49.086;33.418;2023-01-01T01:07:13;65943.25;;;-139.78;100.00
74578;BME280;63173;49.086;33.418;2023-01-01T01:09:39;65943.25;;;-139.78;100.00
74578;BME280;63173;49.086;33.418;2023-01-01T01:12:04;65943.25;;;-139.78;100.00
74578;BME280;63173;49.086;33.418;2023-01-01T01:14:30;65943.25;;;-139.78;100.00
74578;BME280;63173;49.086;33.418;2023-01-01T01:16:55;65943.25;;;-139.78;100.00
74578;BME280;63173;49.086;33.418;2023-01-01T01:19:21;65943.25;;;-139.78;100.00
74578;BME280;63173;49.086;33.418;2023-01-01T01:21:48;65943.25;;;-139.78;100.00
74578;BME280;63173;49.086;33.418;2023-01-01T01:24:15;65943.25;;;-139.78;100.00
74578;BME280;63173;49.086;33.418;2023-01-01T01:26:40;65943.25;;;-139.78;100.00
74578;BME280;63173;49.086;33.418;2023-01-01T01:29:06;65943.25;;;-139.78;100.00
74578;BME280;63173;49.086;33.418;2023-01-01T01:31:32;65943.25;;;-139.78;100.00
74578;BME280;63173;49.086;33.418;2023-01-01T01:33:59;65943.25;;;-139.78;100.00
74578;BME280;63173;49.086;33.418;2023-01-01T01:36:25;65943.25;;;-139.78;100.00
74578;BME280;63173;49.086;33.418;2023-01-01T01:38:51;65943.25;;;-139.78;100.00
74578;BME280;63173;49.086;33.418;2023-01-01T01:41:19;65943.25;;;-139.78;100.00
74578;BME280;63173;49.086;33.418;2023-01-01T01:46:31;65943.25;;;-139.78;100.00
74578;BME280;63173;49.086;33.418;2023-01-01T01:49:02;65943.25;;;-139.78;100.00
74578;BME280;63173;49.086;33.418;2023-01-01T01:51:37;65943.25;;;-139.78;100.00
74578;BME280;63173;49.086;33.418;2023-01-01T01:54:09;65943.25;;;-139.78;100.00
74578;BME280;63173;49.086;33.418;2023-01-01T01:56:46;65943.25;;;-139.78;100.00
74578;BME280;63173;49.086;33.418;2023-01-01T01:59:13;65943.25;;;-139.78;100.00
74578;BME280;63173;49.086;33.418;2023-01-01T02:01:39;65943.25;;;-139.78;100.00
74578;BME280;63173;49.086;33.418;2023-01-01T02:04:06;65943.25;;;-139.78;100.00
74578;BME280;63173;49.086;33.418;2023-01-01T02:06:32;65943.25;;;-139.78;100.00
74578;BME280;63173;49.086;33.418;2023-01-01T02:09:02;65943.25;;;-139.78;100.00
74578;BME280;63173;49.086;33.418;2023-01-01T02:11:28;65943.25;;;-139.78;100.00
74578;BME280;63173;49.086;33.418;2023-01-01T02:13:54;65943.25;;;-139.78;100.00
74578;BME280;63173;49.086;33.418;2023-01-01T02:19:11;65943.25;;;-139.78;100.00
74578;BME280;63173;49.086;33.418;2023-01-01T02:21:58;65943.25;;;-139.78;100.00
74578;BME280;63173;49.086;33.418;2023-01-01T02:24:48;65943.25;;;-139.78;100.00
74578;BME280;63173;49.086;33.418;2023-01-01T02:30:15;65943.25;;;-139.78;100.00
74578;BME280;63173;49.086;33.418;2023-01-01T02:32:51;65943.25;;;-139.78;100.00
74578;BME280;63173;49.086;33.418;2023-01-01T02:35:40;65943.25;;;-139.78;100.00
74578;BME280;63173;49.086;33.418;2023-01-01T02:38:14;65943.25;;;-139.78;100.00
74578;BME280;63173;49.086;33.418;2023-01-01T02:40:45;65943.25;;;-139.78;100.00
74578;BME280;63173;49.086;33.418;2023-01-01T02:43:12;65943.25;;;-139.78;100.00
74578;BME280;63173;49.086;33.418;2023-01-01T02:45:38;65943.25;;;-139.78;100.00
74578;BME280;63173;49.086;33.418;2023-01-01T02:51:13;65943.25;;;-139.78;100.00
74578;BME280;63173;49.086;33.418;2023-01-01T03:00:47;101247.25;;;3.81;92.95
74578;BME280;63173;49.086;33.418;2023-01-01T03:03:28;101257.19;;;3.81;93.39
74578;BME280;63173;49.086;33.418;2023-01-01T03:11:54;101245.00;;;3.78;93.78
74578;BME280;63173;49.086;33.418;2023-01-01T03:14:55;101244.81;;;3.80;94.49
74578;BME280;63173;49.086;33.418;2023-01-01T03:17:38;101235.66;;;3.63;93.02
74578;BME280;63173;49.086;33.418;2023-01-01T03:20:10;101226.03;;;3.73;94.07
74578;BME280;63173;49.086;33.418;2023-01-01T03:22:39;101224.06;;;3.87;93.61
74578;BME280;63173;49.086;33.418;2023-01-01T03:27:40;101228.69;;;3.80;93.04
74578;BME280;63173;49.086;33.418;2023-01-01T03:30:09;101235.25;;;3.84;93.09
74578;BME280;63173;49.086;33.418;2023-01-01T03:33:17;101237.84;;;3.97;92.98
74578;BME280;63173;49.086;33.418;2023-01-01T03:35:56;101240.91;;;4.01;93.07
74578;BME280;63173;49.086;33.418;2023-01-01T03:38:33;101242.66;;;3.89;92.34
74578;BME280;63173;49.086;33.418;2023-01-01T03:41:03;101239.31;;;3.93;93.21
74578;BME280;63173;49.086;33.418;2023-01-01T03:46:27;101233.66;;;4.01;94.28
74578;BME280;63173;49.086;33.418;2023-01-01T03:48:54;101227.59;;;4.06;92.85
74578;BME280;63173;49.086;33.418;2023-01-01T03:53:53;101225.00;;;4.17;93.41
74578;BME280;63173;49.086;33.418;2023-01-01T03:56:24;101214.03;;;4.19;92.89
74578;BME280;63173;49.086;33.418;2023-01-01T03:59:05;101231.97;;;4.25;93.16
74578;BME280;63173;49.086;33.418;2023-01-01T04:01:36;101245.50;;;4.36;91.62
74578;BME280;63173;49.086;33.418;2023-01-01T04:04:04;101243.31;;;4.45;92.17
74578;BME280;63173;49.086;33.418;2023-01-01T04:06:34;101242.53;;;4.44;91.85
74578;BME280;63173;49.086;33.418;2023-01-01T04:08:59;101245.81;;;4.46;92.25
74578;BME280;63173;49.086;33.418;2023-01-01T04:11:28;101252.97;;;4.52;91.56
74578;BME280;63173;49.086;33.418;2023-01-01T04:14:24;101250.88;;;4.54;91.15
74578;BME280;63173;49.086;33.418;2023-01-01T04:16:50;101242.81;;;4.54;90.51
74578;BME280;63173;49.086;33.418;2023-01-01T04:19:15;101238.19;;;4.43;92.66
74578;BME280;63173;49.086;33.418;2023-01-01T04:21:40;101234.91;;;4.59;90.96
74578;BME280;63173;49.086;33.418;2023-01-01T04:24:06;101228.03;;;4.63;90.73
74578;BME280;63173;49.086;33.418;2023-01-01T04:26:31;101218.22;;;4.51;90.86
74578;BME280;63173;49.086;33.418;2023-01-01T04:28:57;101229.66;;;4.64;91.34
74578;BME280;63173;49.086;33.418;2023-01-01T04:31:22;101229.91;;;4.63;91.98
74578;BME280;63173;49.086;33.418;2023-01-01T04:33:52;101226.84;;;4.59;90.56
74578;BME280;63173;49.086;33.418;2023-01-01T04:36:18;101222.31;;;4.71;91.03
74578;BME280;63173;49.086;33.418;2023-01-01T04:38:43;101224.34;;;4.76;90.02
74578;BME280;63173;49.086;33.418;2023-01-01T04:41:08;101219.63;;;4.71;91.14
74578;BME280;63173;49.086;33.418;2023-01-01T04:43:34;101213.81;;;4.74;91.65
74578;BME280;63173;49.086;33.418;2023-01-01T04:46:02;101210.06;;;4.75;90.09
74578;BME280;63173;49.086;33.418;2023-01-01T04:48:28;101209.34;;;4.68;91.52
74578;BME280;63173;49.086;33.418;2023-01-01T04:50:59;101207.84;;;4.72;90.14
74578;BME280;63173;49.086;33.418;2023-01-01T04:53:28;101218.66;;;4.84;91.03
74578;BME280;63173;49.086;33.418;2023-01-01T04:55:54;101213.50;;;4.83;91.21
74578;BME280;63173;49.086;33.418;2023-01-01T04:58:19;101221.25;;;4.91;90.36
74578;BME280;63173;49.086;33.418;2023-01-01T05:00:49;101215.44;;;4.75;90.32
74578;BME280;63173;49.086;33.418;2023-01-01T05:03:16;101213.34;;;4.96;90.38
74578;BME280;63173;49.086;33.418;2023-01-01T05:05:41;101224.28;;;4.83;89.85
74578;BME280;63173;49.086;33.418;2023-01-01T05:08:06;101211.53;;;4.90;89.13
74578;BME280;63173;49.086;33.418;2023-01-01T05:10:32;101223.50;;;4.94;89.42
74578;BME280;63173;49.086;33.418;2023-01-01T05:12:57;101224.59;;;5.04;89.79
74578;BME280;63173;49.086;33.418;2023-01-01T05:15:23;101226.47;;;5.04;89.54
74578;BME280;63173;49.086;33.418;2023-01-01T05:17:48;101213.69;;;4.99;89.48
74578;BME280;63173;49.086;33.418;2023-01-01T05:20:13;101218.19;;;5.05;90.17
74578;BME280;63173;49.086;33.418;2023-01-01T05:22:39;101218.97;;;5.06;89.68
74578;BME280;63173;49.086;33.418;2023-01-01T05:25:05;101217.66;;;4.97;88.98
74578;BME280;63173;49.086;33.418;2023-01-01T05:27:30;101221.19;;;4.97;89.39
74578;BME280;63173;49.086;33.418;2023-01-01T05:29:56;101217.34;;;5.05;89.35
74578;BME280;63173;49.086;33.418;2023-01-01T05:32:21;101218.25;;;4.99;89.66
74578;BME280;63173;49.086;33.418;2023-01-01T05:34:47;101211.38;;;5.03;89.33
74578;BME280;63173;49.086;33.418;2023-01-01T05:37:12;101212.75;;;4.94;90.06
74578;BME280;63173;49.086;33.418;2023-01-01T05:39:37;101209.50;;;5.03;88.68
74578;BME280;63173;49.086;33.418;2023-01-01T05:42:03;101207.97;;;5.07;89.08
74578;BME280;63173;49.086;33.418;2023-01-01T05:44:28;101200.22;;;4.99;88.62
74578;BME280;63173;49.086;33.418;2023-01-01T05:46:54;101200.00;;;5.01;89.31
74578;BME280;63173;49.086;33.418;2023-01-01T05:49:19;101201.44;;;5.03;89.13
74578;BME280;63173;49.086;33.418;2023-01-01T05:51:44;101204.00;;;5.10;89.60
74578;BME280;63173;49.086;33.418;2023-01-01T05:54:10;101208.56;;;5.09;89.04
74578;BME280;63173;49.086;33.418;2023-01-01T05:56:35;101212.97;;;5.22;88.39
74578;BME280;63173;49.086;33.418;2023-01-01T05:59:01;101218.78;;;5.19;89.57
74578;BME280;63173;49.086;33.418;2023-01-01T06:01:28;101223.81;;;5.15;89.25
74578;BME280;63173;49.086;33.418;2023-01-01T06:03:55;101228.06;;;5.23;88.56
74578;BME280;63173;49.086;33.418;2023-01-01T06:06:24;101251.03;;;5.25;88.80
74578;BME280;63173;49.086;33.418;2023-01-01T06:08:51;101257.59;;;5.29;88.14
74578;BME280;63173;49.086;33.418;2023-01-01T06:11:17;101256.47;;;5.37;87.96
74578;BME280;63173;49.086;33.418;2023-01-01T06:13:43;101252.47;;;5.39;88.55
74578;BME280;63173;49.086;33.418;2023-01-01T06:16:09;101245.97;;;5.47;87.67
74578;BME280;63173;49.086;33.418;2023-01-01T06:18:35;101260.97;;;5.54;86.78
74578;BME280;63173;49.086;33.418;2023-01-01T06:23:33;101252.53;;;5.62;86.79
74578;BME280;63173;49.086;33.418;2023-01-01T06:28:35;101255.38;;;5.67;87.17
74578;BME280;63173;49.086;33.418;2023-01-01T06:31:02;101259.81;;;5.62;87.76
74578;BME280;63173;49.086;33.418;2023-01-01T06:33:28;101263.31;;;5.62;87.46
74578;BME280;63173;49.086;33.418;2023-01-01T06:35:54;101264.25;;;5.68;86.52
74578;BME280;63173;49.086;33.418;2023-01-01T06:38:20;101265.66;;;5.59;87.61
74578;BME280;63173;49.086;33.418;2023-01-01T06:40:56;101267.97;;;5.85;86.40
74578;BME280;63173;49.086;33.418;2023-01-01T06:43:21;101277.53;;;5.81;86.81
74578;BME280;63173;49.086;33.418;2023-01-01T06:45:46;101263.34;;;5.74;85.94
74578;BME280;63173;49.086;33.418;2023-01-01T06:48:12;101265.63;;;5.89;86.94
74578;BME280;63173;49.086;33.418;2023-01-01T06:50:37;101270.09;;;5.95;85.70
74578;BME280;63173;49.086;33.418;2023-01-01T06:53:03;101265.63;;;6.00;85.30
74578;BME280;63173;49.086;33.418;2023-01-01T06:55:28;101259.53;;;5.93;85.51
74578;BME280;63173;49.086;33.418;2023-01-01T06:57:53;101261.66;;;5.91;85.73
74578;BME280;63173;49.086;33.418;2023-01-01T07:00:19;101272.44;;;5.91;86.22
74578;BME280;63173;49.086;33.418;2023-01-01T07:02:47;101274.66;;;6.06;85.37
74578;BME280;63173;49.086;33.418;2023-01-01T07:05:12;101274.81;;;6.11;85.15
74578;BME280;63173;49.086;33.418;2023-01-01T07:07:38;101277.00;;;5.91;85.85
74578;BME280;63173;49.086;33.418;2023-01-01T07:10:03;101272.78;;;5.95;85.67
74578;BME280;63173;49.086;33.418;2023-01-01T07:12:29;101267.38;;;5.95;85.46
74578;BME280;63173;49.086;33.418;2023-01-01T07:14:54;101270.44;;;5.98;85.68
74578;BME280;63173;49.086;33.418;2023-01-01T07:17:20;101278.19;;;6.06;85.98
74578;BME280;63173;49.086;33.418;2023-01-01T07:19:45;101282.78;;;6.17;85.38
74578;BME280;63173;49.086;33.418;2023-01-01T07:22:11;101293.34;;;6.30;84.84
74578;BME280;63173;49.086;33.418;2023-01-01T07:24:36;101286.66;;;6.33;84.43
74578;BME280;63173;49.086;33.418;2023-01-01T07:27:03;101284.31;;;6.36;84.54
74578;BME280;63173;49.086;33.418;2023-01-01T07:29:29;101277.53;;;6.34;84.71
74578;BME280;63173;49.086;33.418;2023-01-01T07:31:54;101278.06;;;6.36;84.26
74578;BME280;63173;49.086;33.418;2023-01-01T07:34:20;101276.09;;;6.43;84.46
74578;BME280;63173;49.086;33.418;2023-01-01T07:36:47;101272.22;;;6.39;84.24
74578;BME280;63173;49.086;33.418;2023-01-01T07:39:12;101274.19;;;6.55;83.91
74578;BME280;63173;49.086;33.418;2023-01-01T07:41:37;101280.53;;;6.60;83.94
74578;BME280;63173;49.086;33.418;2023-01-01T07:44:03;101301.53;;;6.70;83.56
74578;BME280;63173;49.086;33.418;2023-01-01T07:46:29;101297.69;;;6.66;83.34
74578;BME280;63173;49.086;33.418;2023-01-01T07:48:54;101297.69;;;6.66;82.89
74578;BME280;63173;49.086;33.418;2023-01-01T07:51:20;101296.25;;;6.63;83.39
74578;BME280;63173;49.086;33.418;2023-01-01T07:53:46;101301.66;;;6.63;83.76
74578;BME280;63173;49.086;33.418;2023-01-01T07:56:11;101292.38;;;6.71;83.46
74578;BME280;63173;49.086;33.418;2023-01-01T07:58:40;101292.03;;;6.79;83.67
74578;BME280;63173;49.086;33.418;2023-01-01T08:01:09;101293.19;;;6.83;83.18
74578;BME280;63173;49.086;33.418;2023-01-01T08:03:35;101311.59;;;6.86;82.62
74578;BME280;63173;49.086;33.418;2023-01-01T08:06:06;101316.88;;;6.93;83.01
74578;BME280;63173;49.086;33.418;2023-01-01T08:08:32;101315.91;;;6.99;82.59
74578;BME280;63173;49.086;33.418;2023-01-01T08:11:01;101315.34;;;6.97;82.54
74578;BME280;63173;49.086;33.418;2023-01-01T08:13:26;101298.78;;;6.93;82.33
74578;BME280;63173;49.086;33.418;2023-01-01T08:15:52;101306.31;;;6.91;83.18
74578;BME280;63173;49.086;33.418;2023-01-01T08:18:20;101302.63;;;7.09;83.12
74578;BME280;63173;49.086;33.418;2023-01-01T08:20:45;101302.53;;;7.04;82.12
74578;BME280;63173;49.086;33.418;2023-01-01T08:23:10;101306.03;;;7.04;82.23
74578;BME280;63173;49.086;33.418;2023-01-01T08:25:36;101312.34;;;7.21;82.01
74578;BME280;63173;49.086;33.418;2023-01-01T08:28:01;101300.81;;;7.26;82.31
74578;BME280;63173;49.086;33.418;2023-01-01T08:30:27;101304.81;;;7.23;81.72
74578;BME280;63173;49.086;33.418;2023-01-01T08:32:52;101306.31;;;7.31;81.57
74578;BME280;63173;49.086;33.418;2023-01-01T08:35:17;101305.34;;;7.37;82.17
74578;BME280;63173;49.086;33.418;2023-01-01T08:37:43;101290.72;;;7.49;81.06
74578;BME280;63173;49.086;33.418;2023-01-01T08:40:11;101297.81;;;7.39;81.74
74578;BME280;63173;49.086;33.418;2023-01-01T08:42:37;101303.22;;;7.39;82.57
74578;BME280;63173;49.086;33.418;2023-01-01T08:45:04;101298.16;;;7.42;82.26
74578;BME280;63173;49.086;33.418;2023-01-01T08:47:32;101301.53;;;7.49;81.34
74578;BME280;63173;49.086;33.418;2023-01-01T08:49:57;101289.50;;;7.57;81.92
74578;BME280;63173;49.086;33.418;2023-01-01T08:52:23;101276.56;;;7.59;81.35
74578;BME280;63173;49.086;33.418;2023-01-01T08:54:48;101283.69;;;7.65;82.01
74578;BME280;63173;49.086;33.418;2023-01-01T08:57:14;101274.75;;;7.64;82.01
74578;BME280;63173;49.086;33.418;2023-01-01T08:59:39;101273.22;;;7.69;80.88
74578;BME280;63173;49.086;33.418;2023-01-01T09:02:05;101282.00;;;7.76;80.70
74578;BME280;63173;49.086;33.418;2023-01-01T09:04:31;101273.84;;;7.87;80.23
74578;BME280;63173;49.086;33.418;2023-01-01T09:06:56;101269.78;;;7.73;80.29
74578;BME280;63173;49.086;33.418;2023-01-01T09:09:22;101266.66;;;7.64;80.39
74578;BME280;63173;49.086;33.418;2023-01-01T09:11:52;101268.16;;;7.72;81.74
74578;BME280;63173;49.086;33.418;2023-01-01T09:14:18;101269.88;;;7.78;80.21
74578;BME280;63173;49.086;33.418;2023-01-01T09:16:44;101248.56;;;7.82;80.23
74578;BME280;63173;49.086;33.418;2023-01-01T09:19:09;101250.38;;;7.93;80.61
74578;BME280;63173;49.086;33.418;2023-01-01T09:21:35;101249.16;;;8.00;80.81
74578;BME280;63173;49.086;33.418;2023-01-01T09:24:00;101250.13;;;8.11;79.67
74578;BME280;63173;49.086;33.418;2023-01-01T09:26:25;101251.00;;;8.33;79.50
74578;BME280;63173;49.086;33.418;2023-01-01T09:28:52;101240.84;;;8.40;78.04
74578;BME280;63173;49.086;33.418;2023-01-01T09:31:18;101236.81;;;8.42;79.55
74578;BME280;63173;49.086;33.418;2023-01-01T09:33:44;101234.19;;;8.47;79.53
74578;BME280;63173;49.086;33.418;2023-01-01T09:38:49;101221.34;;;8.38;79.31
74578;BME280;63173;49.086;33.418;2023-01-01T09:43:52;101220.91;;;8.68;78.87
74578;BME280;63173;49.086;33.418;2023-01-01T09:46:22;101214.78;;;8.77;77.88
74578;BME280;63173;49.086;33.418;2023-01-01T09:49:16;101220.34;;;8.87;77.47
74578;BME280;63173;49.086;33.418;2023-01-01T09:51:50;101211.44;;;8.92;77.32
74578;BME280;63173;49.086;33.418;2023-01-01T09:54:33;101214.84;;;8.82;77.25
74578;BME280;63173;49.086;33.418;2023-01-01T09:57:03;101208.16;;;8.90;77.04
74578;BME280;63173;49.086;33.418;2023-01-01T09:59:31;101193.66;;;8.74;78.20
74578;BME280;63173;49.086;33.418;2023-01-01T10:07:33;101176.59;;;9.27;77.94
74578;BME280;63173;49.086;33.418;2023-01-01T10:15:28;101177.19;;;9.97;74.96
74578;BME280;63173;49.086;33.418;2023-01-01T10:18:03;101177.81;;;9.73;74.66
74578;BME280;63173;49.086;33.418;2023-01-01T10:20:35;101173.19;;;9.73;74.20
74578;BME280;63173;49.086;33.418;2023-01-01T10:23:29;101170.91;;;9.60;76.22
74578;BME280;63173;49.086;33.418;2023-01-01T10:25:54;101164.44;;;9.61;75.88
74578;BME280;63173;49.086;33.418;2023-01-01T10:28:48;101167.94;;;9.62;75.91
74578;BME280;63173;49.086;33.418;2023-01-01T10:31:32;101164.47;;;9.66;75.29
74578;BME280;63173;49.086;33.418;2023-01-01T10:34:07;101156.66;;;10.11;74.90
74578;BME280;63173;49.086;33.418;2023-01-01T10:36:36;101155.06;;;10.15;73.87
74578;BME280;63173;49.086;33.418;2023-01-01T10:39:02;101155.88;;;10.16;75.08
74578;BME280;63173;49.086;33.418;2023-01-01T10:41:27;101161.59;;;10.19;74.27
74578;BME280;63173;49.086;33.418;2023-01-01T10:43:53;101168.66;;;10.20;73.68
74578;BME280;63173;49.086;33.418;2023-01-01T10:46:21;101168.94;;;10.24;74.60
74578;BME280;63173;49.086;33.418;2023-01-01T10:49:14;101166.91;;;10.46;73.67
74578;BME280;63173;49.086;33.418;2023-01-01T10:51:51;101158.22;;;10.54;74.01
74578;BME280;63173;49.086;33.418;2023-01-01T10:54:38;101164.19;;;10.46;72.91
74578;BME280;63173;49.086;33.418;2023-01-01T10:57:30;101152.88;;;10.69;72.33
74578;BME280;63173;49.086;33.418;2023-01-01T11:02:37;101157.31;;;11.10;71.26
74578;BME280;63173;49.086;33.418;2023-01-01T11:05:32;101146.47;;;11.46;70.48
74578;BME280;63173;49.086;33.418;2023-01-01T11:07:57;101142.97;;;11.65;69.71
74578;BME280;63173;49.086;33.418;2023-01-01T11:10:23;101149.75;;;11.43;70.84
74578;BME280;63173;49.086;33.418;2023-01-01T11:12:55;101140.75;;;11.42;71.19
74578;BME280;63173;49.086;33.418;2023-01-01T11:15:50;101140.25;;;11.65;70.31
74578;BME280;63173;49.086;33.418;2023-01-01T11:18:22;101146.19;;;11.57;70.52
74578;BME280;63173;49.086;33.418;2023-01-01T11:20:56;101143.44;;;11.17;71.53
74578;BME280;63173;49.086;33.418;2023-01-01T11:26:05;101127.13;;;11.62;70.50
74578;BME280;63173;49.086;33.418;2023-01-01T11:28:33;101129.63;;;11.84;69.95
74578;BME280;63173;49.086;33.418;2023-01-01T11:31:14;101136.13;;;11.53;70.22
74578;BME280;63173;49.086;33.418;2023-01-01T11:33:48;101128.81;;;11.68;70.51
74578;BME280;63173;49.086;33.418;2023-01-01T11:36:21;101125.81;;;11.60;70.94
74578;BME280;63173;49.086;33.418;2023-01-01T11:38:50;101125.53;;;11.41;71.30
74578;BME280;63173;49.086;33.418;2023-01-01T11:41:18;101121.19;;;11.50;71.09
74578;BME280;63173;49.086;33.418;2023-01-01T11:43:45;101123.91;;;11.35;72.18
74578;BME280;63173;49.086;33.418;2023-01-01T11:46:17;101124.44;;;11.37;72.53
74578;BME280;63173;49.086;33.418;2023-01-01T11:48:46;101108.69;;;11.39;71.90
74578;BME280;63173;49.086;33.418;2023-01-01T11:51:28;101120.09;;;11.31;72.69
74578;BME280;63173;49.086;33.418;2023-01-01T11:54:08;101118.47;;;11.70;71.17
74578;BME280;63173;49.086;33.418;2023-01-01T11:56:35;101107.56;;;11.85;71.06
74578;BME280;63173;49.086;33.418;2023-01-01T11:59:14;101120.34;;;11.80;71.02
74578;BME280;63173;49.086;33.418;2023-01-01T12:01:44;101117.06;;;11.83;71.04
74578;BME280;63173;49.086;33.418;2023-01-01T12:04:42;101111.91;;;11.86;70.42
74578;BME280;63173;49.086;33.418;2023-01-01T12:07:14;101114.63;;;11.91;71.09
74578;BME280;63173;49.086;33.418;2023-01-01T12:09:57;101124.41;;;12.02;70.54
74578;BME280;63173;49.086;33.418;2023-01-01T12:12:33;101123.00;;;12.10;70.12
74578;BME280;63173;49.086;33.418;2023-01-01T12:18:16;101118.94;;;12.02;70.79
74578;BME280;63173;49.086;33.418;2023-01-01T12:20:44;101118.38;;;12.10;70.53
74578;BME280;63173;49.086;33.418;2023-01-01T12:23:15;101121.69;;;11.62;71.73
74578;BME280;63173;49.086;33.418;2023-01-01T12:25:45;101120.31;;;12.05;70.92
74578;BME280;63173;49.086;33.418;2023-01-01T12:45:37;101113.41;;;12.32;69.95
74578;BME280;63173;49.086;33.418;2023-01-01T12:56:33;101104.81;;;12.05;70.92
74578;BME280;63173;49.086;33.418;2023-01-01T13:01:37;101099.41;;;11.90;71.90
74578;BME280;63173;49.086;33.418;2023-01-01T13:04:10;101099.91;;;11.97;72.06
74578;BME280;63173;49.086;33.418;2023-01-01T13:09:19;101106.19;;;11.53;74.47
74578;BME280;63173;49.086;33.418;2023-01-01T13:11:49;101104.03;;;11.50;73.78
74578;BME280;63173;49.086;33.418;2023-01-01T13:14:15;101098.84;;;11.53;73.95
74578;BME280;63173;49.086;33.418;2023-01-01T13:16:46;101100.78;;;11.32;75.40
74578;BME280;63173;49.086;33.418;2023-01-01T13:21:49;101112.75;;;11.47;74.41
74578;BME280;63173;49.086;33.418;2023-01-01T13:24:20;101113.00;;;11.45;74.49
74578;BME280;63173;49.086;33.418;2023-01-01T13:26:46;101128.78;;;11.38;74.80
74578;BME280;63173;49.086;33.418;2023-01-01T13:37:28;101145.66;;;11.40;75.12
74578;BME280;63173;49.086;33.418;2023-01-01T13:45:29;101152.22;;;11.69;73.46
74578;BME280;63173;49.086;33.418;2023-01-01T13:50:51;101152.19;;;11.59;73.73
74578;BME280;63173;49.086;33.418;2023-01-01T13:56:46;101142.41;;;11.48;74.37
74578;BME280;63173;49.086;33.418;2023-01-01T14:00:13;101131.78;;;11.36;74.95
74578;BME280;63173;49.086;33.418;2023-01-01T14:05:02;101130.41;;;11.34;75.58
74578;BME280;63173;49.086;33.418;2023-01-01T14:07:43;101138.59;;;11.29;75.41
74578;BME280;63173;49.086;33.418;2023-01-01T14:10:32;101135.31;;;11.32;74.66
74578;BME280;63173;49.086;33.418;2023-01-01T14:15:32;101135.31;;;11.12;76.16
74578;BME280;63173;49.086;33.418;2023-01-01T14:18:00;101140.22;;;11.20;75.38
74578;BME280;63173;49.086;33.418;2023-01-01T14:20:34;101137.50;;;11.20;76.11
74578;BME280;63173;49.086;33.418;2023-01-01T14:23:05;101141.00;;;11.15;76.05
74578;BME280;63173;49.086;33.418;2023-01-01T14:25:33;101138.00;;;11.17;76.15
74578;BME280;63173;49.086;33.418;2023-01-01T14:27:58;101140.47;;;11.18;75.70
74578;BME280;63173;49.086;33.418;2023-01-01T14:30:25;101134.50;;;11.16;76.25
74578;BME280;63173;49.086;33.418;2023-01-01T14:33:01;101132.31;;;11.18;76.50
74578;BME280;63173;49.086;33.418;2023-01-01T14:35:28;101136.94;;;11.23;75.82
74578;BME280;63173;49.086;33.418;2023-01-01T14:37:53;101148.63;;;11.23;76.13
74578;BME280;63173;49.086;33.418;2023-01-01T14:40:21;101135.06;;;11.33;75.89
74578;BME280;63173;49.086;33.418;2023-01-01T14:43:08;101135.84;;;11.34;75.51
74578;BME280;63173;49.086;33.418;2023-01-01T14:45:41;101150.03;;;11.41;75.98
74578;BME280;63173;49.086;33.418;2023-01-01T14:48:16;101156.53;;;11.45;74.71
74578;BME280;63173;49.086;33.418;2023-01-01T14:50:46;101153.81;;;11.45;75.75
74578;BME280;63173;49.086;33.418;2023-01-01T14:53:15;101155.72;;;11.45;75.05